sensor_id;sensor_type;location;lat;lon;timestamp;P1;P2;P0
62981;PMS5003;49075;53.988;27.678;2023-09-18T00:01:02;49.8;41.8;29.2
62981;PMS5003;49075;53.988;27.678;2023-09-18T00:06:36;50.2;41.2;29
62981;PMS5003;49075;53.988;27.678;2023-09-18T00:10:46;51.2;43;29.8
62981;PMS5003;49075;53.988;27.678;2023-09-18T00:16:00;52.8;44;30.6
62981;PMS5003;49075;53.988;27.678;2023-09-18T00:20:44;48.8;41.4;29.4
62981;PMS5003;49075;53.988;27.678;2023-09-18T00:26:00;52;43.8;30
62981;PMS5003;49075;53.988;27.678;2023-09-18T00:30:46;51.6;42.8;29.6
62981;PMS5003;49075;53.988;27.678;2023-09-18T00:35:45;52.8;44.4;31
62981;PMS5003;49075;53.988;27.678;2023-09-18T00:40:54;48.6;41.4;29.6
62981;PMS5003;49075;53.988;27.678;2023-09-18T00:45:54;50;42;28.6
62981;PMS5003;49075;53.988;27.678;2023-09-18T00:50:54;52.4;43.6;30.4
62981;PMS5003;49075;53.988;27.678;2023-09-18T00:55:44;51.2;42.4;29.2
62981;PMS5003;49075;53.988;27.678;2023-09-18T01:00:50;53.4;44;30.8
62981;PMS5003;49075;53.988;27.678;2023-09-18T01:05:44;52.6;43.4;30.2
62981;PMS5003;49075;53.988;27.678;2023-09-18T01:10:46;52.8;44;30.2
62981;PMS5003;49075;53.988;27.678;2023-09-18T01:15:46;51.8;43.2;29.6
62981;PMS5003;49075;53.988;27.678;2023-09-18T01:20:44;54.4;45.4;31.2
62981;PMS5003;49075;53.988;27.678;2023-09-18T01:26:00;53;43.6;31.2
62981;PMS5003;49075;53.988;27.678;2023-09-18T01:30:50;52.3;43;29.8
62981;PMS5003;49075;53.988;27.678;2023-09-18T01:35:54;50.4;41.8;28.6
62981;PMS5003;49075;53.988;27.678;2023-09-18T01:41:02;51.2;42.6;30.4
62981;PMS5003;49075;53.988;27.678;2023-09-18T01:45:44;49.8;41.4;29
62981;PMS5003;49075;53.988;27.678;2023-09-18T01:51:06;51.4;42.8;30
62981;PMS5003;49075;53.988;27.678;2023-09-18T01:56:06;50;42;29.4
62981;PMS5003;49075;53.988;27.678;2023-09-18T02:01:14;47.4;40.6;28.2
62981;PMS5003;49075;53.988;27.678;2023-09-18T02:06:06;50;41.6;29.6
62981;PMS5003;49075;53.988;27.678;2023-09-18T02:10:54;47.6;39.6;28.2
62981;PMS5003;49075;53.988;27.678;2023-09-18T02:15:44;49.4;41.4;29.4
62981;PMS5003;49075;53.988;27.678;2023-09-18T02:20:50;51.8;43.4;29.4
62981;PMS5003;49075;53.988;27.678;2023-09-18T02:25:58;55.6;46.4;32.2
62981;PMS5003;49075;53.988;27.678;2023-09-18T02:30:44;51.3;42.8;29.3
62981;PMS5003;49075;53.988;27.678;2023-09-18T02:35:52;54.2;45;30.6
62981;PMS5003;49075;53.988;27.678;2023-09-18T02:40:50;51.2;42.6;29.2
62981;PMS5003;49075;53.988;27.678;2023-09-18T02:45:44;51.6;42.8;29.6
62981;PMS5003;49075;53.988;27.678;2023-09-18T02:51:16;50.4;42.8;29.6
62981;PMS5003;49075;53.988;27.678;2023-09-18T02:55:58;49;41.8;28.6
62981;PMS5003;49075;53.988;27.678;2023-09-18T03:00:58;49.8;41.2;28.8
62981;PMS5003;49075;53.988;27.678;2023-09-18T03:06:01;52;43;30
62981;PMS5003;49075;53.988;27.678;2023-09-18T03:11:10;49;42;29.4
62981;PMS5003;49075;53.988;27.678;2023-09-18T03:15:58;51.4;43.2;29.4
62981;PMS5003;49075;53.988;27.678;2023-09-18T03:21:02;48.4;40.4;28.4
62981;PMS5003;49075;53.988;27.678;2023-09-18T03:25:44;51.2;43;29.8
62981;PMS5003;49075;53.988;27.678;2023-09-18T03:30:44;50.8;43.3;29.5
62981;PMS5003;49075;53.988;27.678;2023-09-18T03:35:44;51.8;43.2;29.2
62981;PMS5003;49075;53.988;27.678;2023-09-18T03:41:12;62.6;52.8;35
62981;PMS5003;49075;53.988;27.678;2023-09-18T03:45:44;71.6;63;43.8
62981;PMS5003;49075;53.988;27.678;2023-09-18T03:51:04;56.2;46.6;31.4
62981;PMS5003;49075;53.988;27.678;2023-09-18T03:55:58;52.4;44.4;30
62981;PMS5003;49075;53.988;27.678;2023-09-18T04:01:04;53.4;44.8;30.6
62981;PMS5003;49075;53.988;27.678;2023-09-18T04:05:44;49.6;41.2;28.8
62981;PMS5003;49075;53.988;27.678;2023-09-18T04:10:44;49.6;42.4;30
62981;PMS5003;49075;53.988;27.678;2023-09-18T04:15:50;51.2;43.4;29.6
62981;PMS5003;49075;53.988;27.678;2023-09-18T04:20:50;51.6;43.4;28.8
62981;PMS5003;49075;53.988;27.678;2023-09-18T04:26:02;52.4;44.4;30
62981;PMS5003;49075;53.988;27.678;2023-09-18T04:30:44;53.8;45.3;31
62981;PMS5003;49075;53.988;27.678;2023-09-18T04:35:44;52.6;44;30.8
62981;PMS5003;49075;53.988;27.678;2023-09-18T04:40:44;50.6;42.4;29.2
62981;PMS5003;49075;53.988;27.678;2023-09-18T04:45:58;53.4;44.6;31
62981;PMS5003;49075;53.988;27.678;2023-09-18T04:50:44;54;44.8;31.6
62981;PMS5003;49075;53.988;27.678;2023-09-18T04:56:18;53.6;44.8;31.6
62981;PMS5003;49075;53.988;27.678;2023-09-18T05:00:58;54.2;45.6;31
62981;PMS5003;49075;53.988;27.678;2023-09-18T05:05:50;53.4;44.6;30.6
62981;PMS5003;49075;53.988;27.678;2023-09-18T05:10:50;54.6;45.2;30.6
62981;PMS5003;49075;53.988;27.678;2023-09-18T05:16:02;54.6;45.4;31.6
62981;PMS5003;49075;53.988;27.678;2023-09-18T05:20:54;55;45;32
62981;PMS5003;49075;53.988;27.678;2023-09-18T05:25:44;51.2;42.2;28.4
62981;PMS5003;49075;53.988;27.678;2023-09-18T05:30:50;55.5;45.8;30.5
62981;PMS5003;49075;53.988;27.678;2023-09-18T05:35:58;52.2;43.6;30
62981;PMS5003;49075;53.988;27.678;2023-09-18T05:41:00;49.6;42.2;29.2
62981;PMS5003;49075;53.988;27.678;2023-09-18T05:46:26;51.8;43;29.6
62981;PMS5003;49075;53.988;27.678;2023-09-18T05:50:50;51.4;42.8;30
62981;PMS5003;49075;53.988;27.678;2023-09-18T05:55:50;53.2;43.8;29.6
62981;PMS5003;49075;53.988;27.678;2023-09-18T06:01:04;53.8;44.4;30.8
62981;PMS5003;49075;53.988;27.678;2023-09-18T06:05:44;52.6;43.8;30.8
62981;PMS5003;49075;53.988;27.678;2023-09-18T06:10:54;50;41.6;28
62981;PMS5003;49075;53.988;27.678;2023-09-18T06:16:22;50.4;42;29.6
62981;PMS5003;49075;53.988;27.678;2023-09-18T06:20:44;52.4;43.6;29.4
62981;PMS5003;49075;53.988;27.678;2023-09-18T06:25:44;52;43;29.4
62981;PMS5003;49075;53.988;27.678;2023-09-18T06:30:44;50.3;42.3;29.3
62981;PMS5003;49075;53.988;27.678;2023-09-18T06:35:44;53;43.8;30.2
62981;PMS5003;49075;53.988;27.678;2023-09-18T06:40:50;49.2;41.2;29.4
62981;PMS5003;49075;53.988;27.678;2023-09-18T06:45:44;47.6;40;28.2
62981;PMS5003;49075;53.988;27.678;2023-09-18T06:51:04;48.6;41.4;29
62981;PMS5003;49075;53.988;27.678;2023-09-18T06:56:22;49;41.6;29.4
62981;PMS5003;49075;53.988;27.678;2023-09-18T07:01:00;50.8;42.4;29.2
62981;PMS5003;49075;53.988;27.678;2023-09-18T07:05:58;49.4;41;28.8
62981;PMS5003;49075;53.988;27.678;2023-09-18T07:10:50;49.8;42;29.2
62981;PMS5003;49075;53.988;27.678;2023-09-18T07:15:44;42;36.8;26.4
62981;PMS5003;49075;53.988;27.678;2023-09-18T07:21:14;47.6;39.8;28
62981;PMS5003;49075;53.988;27.678;2023-09-18T07:25:54;46.8;39.6;28.8
62981;PMS5003;49075;53.988;27.678;2023-09-18T07:30:44;42.8;37;26.2
62981;PMS5003;49075;53.988;27.678;2023-09-18T07:35:50;50.8;42.3;29.5
62981;PMS5003;49075;53.988;27.678;2023-09-18T07:40:50;48;40.8;28.6
62981;PMS5003;49075;53.988;27.678;2023-09-18T07:46:02;47.8;40.2;28.4
62981;PMS5003;49075;53.988;27.678;2023-09-18T07:51:02;50;41.6;29.6
62981;PMS5003;49075;53.988;27.678;2023-09-18T07:55:58;42;35.8;25.4
62981;PMS5003;49075;53.988;27.678;2023-09-18T08:00:44;43.8;38;27.2
62981;PMS5003;49075;53.988;27.678;2023-09-18T08:06:24;45;38.6;27.4
62981;PMS5003;49075;53.988;27.678;2023-09-18T08:11:22;47.4;40;28.4
62981;PMS5003;49075;53.988;27.678;2023-09-18T08:15:54;47.6;40.4;28.8
62981;PMS5003;49075;53.988;27.678;2023-09-18T08:20:50;47.8;40.2;28.4
62981;PMS5003;49075;53.988;27.678;2023-09-18T08:25:50;48;40.6;30
62981;PMS5003;49075;53.988;27.678;2023-09-18T08:30:44;45.6;39;28.2
62981;PMS5003;49075;53.988;27.678;2023-09-18T08:35:44;48;40.5;28.8
62981;PMS5003;49075;53.988;27.678;2023-09-18T08:40:44;47.8;40;28.4
62981;PMS5003;49075;53.988;27.678;2023-09-18T08:46:16;47.6;40.4;28.6
62981;PMS5003;49075;53.988;27.678;2023-09-18T08:50:45;43.8;38;27.8
62981;PMS5003;49075;53.988;27.678;2023-09-18T08:56:16;47.8;39.8;28.6
62981;PMS5003;49075;53.988;27.678;2023-09-18T09:00:44;46.6;40;28.6
62981;PMS5003;49075;53.988;27.678;2023-09-18T09:05:56;45.4;38.8;27.6
62981;PMS5003;49075;53.988;27.678;2023-09-18T09:10:44;41.8;36.4;26.2
62981;PMS5003;49075;53.988;27.678;2023-09-18T09:16:00;44.2;38;27
62981;PMS5003;49075;53.988;27.678;2023-09-18T09:21:04;48.4;41;29.2
62981;PMS5003;49075;53.988;27.678;2023-09-18T09:26:12;53.6;44.2;31
62981;PMS5003;49075;53.988;27.678;2023-09-18T09:31:22;51.8;42.8;30.4
62981;PMS5003;49075;53.988;27.678;2023-09-18T09:36:24;49.8;41.5;29
62981;PMS5003;49075;53.988;27.678;2023-09-18T09:40:44;51;42.8;30.4
62981;PMS5003;49075;53.988;27.678;2023-09-18T09:46:16;45.8;39.2;27.8
62981;PMS5003;49075;53.988;27.678;2023-09-18T09:50:45;45.8;38.8;27.6
62981;PMS5003;49075;53.988;27.678;2023-09-18T09:55:44;45.6;39;27.8
62981;PMS5003;49075;53.988;27.678;2023-09-18T10:00:51;48.4;40.6;28.2
62981;PMS5003;49075;53.988;27.678;2023-09-18T10:05:45;46;39.6;28
62981;PMS5003;49075;53.988;27.678;2023-09-18T10:10:51;49;41;29.6
62981;PMS5003;49075;53.988;27.678;2023-09-18T10:16:24;47.6;39.6;28.2
62981;PMS5003;49075;53.988;27.678;2023-09-18T10:20:44;48.6;41.4;28.6
62981;PMS5003;49075;53.988;27.678;2023-09-18T10:25:59;46.6;40.2;28.8
62981;PMS5003;49075;53.988;27.678;2023-09-18T10:31:04;45.6;39.2;27.8
62981;PMS5003;49075;53.988;27.678;2023-09-18T10:35:44;49.3;41.5;29.5
62981;PMS5003;49075;53.988;27.678;2023-09-18T10:40:44;32.6;30.4;22.2
62981;PMS5003;49075;53.988;27.678;2023-09-18T10:45:56;35.2;32.6;24.2
62981;PMS5003;49075;53.988;27.678;2023-09-18T10:50:44;37.4;33.4;24.4
62981;PMS5003;49075;53.988;27.678;2023-09-18T10:56:19;37.4;33.6;24.8
62981;PMS5003;49075;53.988;27.678;2023-09-18T11:01:04;35.4;32.8;24.2
62981;PMS5003;49075;53.988;27.678;2023-09-18T11:06:10;39.4;35;25.6
62981;PMS5003;49075;53.988;27.678;2023-09-18T11:10:55;40.6;36;26.6
62981;PMS5003;49075;53.988;27.678;2023-09-18T11:16:17;39;34.4;26.6
62981;PMS5003;49075;53.988;27.678;2023-09-18T11:20:45;39.2;34.6;25.4
62981;PMS5003;49075;53.988;27.678;2023-09-18T11:25:44;42.6;36.2;25.6
62981;PMS5003;49075;53.988;27.678;2023-09-18T11:31:39;40.4;35.8;25.8
62981;PMS5003;49075;53.988;27.678;2023-09-18T11:35:50;40.3;35.3;26
62981;PMS5003;49075;53.988;27.678;2023-09-18T11:40:44;40.4;35;24.8
62981;PMS5003;49075;53.988;27.678;2023-09-18T11:46:00;40.4;36;26.2
62981;PMS5003;49075;53.988;27.678;2023-09-18T11:51:04;40.2;35.4;26.2
62981;PMS5003;49075;53.988;27.678;2023-09-18T11:55:44;41.2;36.2;26.2
62981;PMS5003;49075;53.988;27.678;2023-09-18T12:01:03;48;40.2;28
62981;PMS5003;49075;53.988;27.678;2023-09-18T12:05:57;51.8;43.2;29
62981;PMS5003;49075;53.988;27.678;2023-09-18T12:10:45;42.6;37.4;26.8
62981;PMS5003;49075;53.988;27.678;2023-09-18T12:15:58;44;38.2;26.8
62981;PMS5003;49075;53.988;27.678;2023-09-18T12:20:45;45;38.4;27.6
62981;PMS5003;49075;53.988;27.678;2023-09-18T12:25:57;41.6;36.8;26.4
62981;PMS5003;49075;53.988;27.678;2023-09-18T12:30:44;46.4;39.6;28.4
62981;PMS5003;49075;53.988;27.678;2023-09-18T12:35:44;45.6;39.8;28
62981;PMS5003;49075;53.988;27.678;2023-09-18T12:41:23;45;38;28
62981;PMS5003;49075;53.988;27.678;2023-09-18T12:45:44;45.2;38.2;27.8
62981;PMS5003;49075;53.988;27.678;2023-09-18T12:50:44;47.8;39.8;27.6
62981;PMS5003;49075;53.988;27.678;2023-09-18T12:55:52;47.4;39.8;27.6
62981;PMS5003;49075;53.988;27.678;2023-09-18T13:00:45;45;37.8;27
62981;PMS5003;49075;53.988;27.678;2023-09-18T13:06:07;44.6;38.4;26.6
62981;PMS5003;49075;53.988;27.678;2023-09-18T13:10:45;42;36.2;25.8
62981;PMS5003;49075;53.988;27.678;2023-09-18T13:15:56;47.2;39.2;27.6
62981;PMS5003;49075;53.988;27.678;2023-09-18T13:21:10;46.4;39;27.8
62981;PMS5003;49075;53.988;27.678;2023-09-18T13:25:44;44.4;37.2;26
62981;PMS5003;49075;53.988;27.678;2023-09-18T13:30:44;44;38;26.2
62981;PMS5003;49075;53.988;27.678;2023-09-18T13:35:45;45.2;38;26
62981;PMS5003;49075;53.988;27.678;2023-09-18T13:41:28;41.3;35.3;25.5
62981;PMS5003;49075;53.988;27.678;2023-09-18T13:45:44;39.2;34.6;24.6
62981;PMS5003;49075;53.988;27.678;2023-09-18T13:50:44;45.8;38.8;27.4
62981;PMS5003;49075;53.988;27.678;2023-09-18T13:55:58;43.6;38.2;26.8
62981;PMS5003;49075;53.988;27.678;2023-09-18T14:00:54;44.2;38;27
62981;PMS5003;49075;53.988;27.678;2023-09-18T14:05:58;41.6;35.6;25
62981;PMS5003;49075;53.988;27.678;2023-09-18T14:11:10;38.8;34.2;24.6
62981;PMS5003;49075;53.988;27.678;2023-09-18T14:15:44;43.2;37;26
62981;PMS5003;49075;53.988;27.678;2023-09-18T14:20:44;45.2;38;26
62981;PMS5003;49075;53.988;27.678;2023-09-18T14:26:08;43.6;36.8;26
62981;PMS5003;49075;53.988;27.678;2023-09-18T14:31:14;44.2;38.4;27.4
62981;PMS5003;49075;53.988;27.678;2023-09-18T14:35:44;44;37.8;26.6
62981;PMS5003;49075;53.988;27.678;2023-09-18T14:41:05;48.3;40.8;28.5
62981;PMS5003;49075;53.988;27.678;2023-09-18T14:46:16;43.8;37.4;26.4
62981;PMS5003;49075;53.988;27.678;2023-09-18T14:51:14;43.4;36.4;25.8
62981;PMS5003;49075;53.988;27.678;2023-09-18T14:55:44;42.8;36.6;25.6
62981;PMS5003;49075;53.988;27.678;2023-09-18T15:01:04;42.8;37;26.2
62981;PMS5003;49075;53.988;27.678;2023-09-18T15:06:00;46.4;39.8;27.6
62981;PMS5003;49075;53.988;27.678;2023-09-18T15:10:44;46.6;39.8;28
62981;PMS5003;49075;53.988;27.678;2023-09-18T15:15:44;47.2;39.6;27.4
62981;PMS5003;49075;53.988;27.678;2023-09-18T15:21:14;47.4;40;28
62981;PMS5003;49075;53.988;27.678;2023-09-18T15:25:44;47.6;40.2;28.4
62981;PMS5003;49075;53.988;27.678;2023-09-18T15:30:44;45.8;39;28.2
62981;PMS5003;49075;53.988;27.678;2023-09-18T15:35:54;46.2;39.6;28
62981;PMS5003;49075;53.988;27.678;2023-09-18T15:41:20;46;38.8;27.3
62981;PMS5003;49075;53.988;27.678;2023-09-18T15:45:44;45.4;38.6;26.6
62981;PMS5003;49075;53.988;27.678;2023-09-18T15:50:50;44.8;38;26.6
62981;PMS5003;49075;53.988;27.678;2023-09-18T15:56:02;48.4;40.6;28.6
62981;PMS5003;49075;53.988;27.678;2023-09-18T16:01:12;51.2;42.6;30.2
62981;PMS5003;49075;53.988;27.678;2023-09-18T16:05:44;48.6;40.4;27.6
62981;PMS5003;49075;53.988;27.678;2023-09-18T16:11:02;50;42;28.8
62981;PMS5003;49075;53.988;27.678;2023-09-18T16:15:58;51;43;30.2
62981;PMS5003;49075;53.988;27.678;2023-09-18T16:20:44;50.2;42.4;28.4
62981;PMS5003;49075;53.988;27.678;2023-09-18T16:26:10;47.6;39.6;27.6
62981;PMS5003;49075;53.988;27.678;2023-09-18T16:30:54;50.6;42.2;30
62981;PMS5003;49075;53.988;27.678;2023-09-18T16:35:44;49.8;41.8;29.2
62981;PMS5003;49075;53.988;27.678;2023-09-18T16:40:44;51.5;42.5;30.3
62981;PMS5003;49075;53.988;27.678;2023-09-18T16:45:50;49;41.4;28.2
62981;PMS5003;49075;53.988;27.678;2023-09-18T16:51:03;49.8;42.6;29.4
62981;PMS5003;49075;53.988;27.678;2023-09-18T16:56:02;51;42.6;29.8
62981;PMS5003;49075;53.988;27.678;2023-09-18T17:01:12;48.4;40.8;27.8
62981;PMS5003;49075;53.988;27.678;2023-09-18T17:06:02;49.4;41.8;29.2
62981;PMS5003;49075;53.988;27.678;2023-09-18T17:10:58;54;44.6;31.4
62981;PMS5003;49075;53.988;27.678;2023-09-18T17:16:05;55;45.2;31
62981;PMS5003;49075;53.988;27.678;2023-09-18T17:21:15;51.8;43;29.8
62981;PMS5003;49075;53.988;27.678;2023-09-18T17:25:59;55.2;45.4;31
62981;PMS5003;49075;53.988;27.678;2023-09-18T17:30:44;53.4;44.6;30.6
62981;PMS5003;49075;53.988;27.678;2023-09-18T17:35:44;55.8;46.2;31.8
62981;PMS5003;49075;53.988;27.678;2023-09-18T17:40:44;53;44.2;30.4
62981;PMS5003;49075;53.988;27.678;2023-09-18T17:46:02;57.3;46.8;32
62981;PMS5003;49075;53.988;27.678;2023-09-18T17:50:44;55.4;45.6;31.4
62981;PMS5003;49075;53.988;27.678;2023-09-18T17:55:45;54.6;45.2;31.6
62981;PMS5003;49075;53.988;27.678;2023-09-18T18:01:05;56.4;46.4;31.8
62981;PMS5003;49075;53.988;27.678;2023-09-18T18:06:10;56.2;45.8;31.4
62981;PMS5003;49075;53.988;27.678;2023-09-18T18:10:52;58;47.4;31.6
62981;PMS5003;49075;53.988;27.678;2023-09-18T18:15:56;57.4;46.2;32
62981;PMS5003;49075;53.988;27.678;2023-09-18T18:20:44;57;46.6;32.4
62981;PMS5003;49075;53.988;27.678;2023-09-18T18:26:19;56.2;46.4;32.2
62981;PMS5003;49075;53.988;27.678;2023-09-18T18:31:03;54;44.4;30.6
62981;PMS5003;49075;53.988;27.678;2023-09-18T18:36:08;54.4;45;30.6
62981;PMS5003;49075;53.988;27.678;2023-09-18T18:40:53;52.8;43.8;30.6
62981;PMS5003;49075;53.988;27.678;2023-09-18T18:45:57;51.5;42.8;30.3
62981;PMS5003;49075;53.988;27.678;2023-09-18T18:50:44;53;44;30.2
62981;PMS5003;49075;53.988;27.678;2023-09-18T18:55:45;53;43.6;29.8
62981;PMS5003;49075;53.988;27.678;2023-09-18T19:00:45;52;42.8;29.8
62981;PMS5003;49075;53.988;27.678;2023-09-18T19:05:50;51.8;43.6;29.8
62981;PMS5003;49075;53.988;27.678;2023-09-18T19:10:44;54.2;44.6;30.6
62981;PMS5003;49075;53.988;27.678;2023-09-18T19:15:44;52.4;43.4;30.6
62981;PMS5003;49075;53.988;27.678;2023-09-18T19:21:12;52.6;43.4;29.8
62981;PMS5003;49075;53.988;27.678;2023-09-18T19:25:45;50;41.8;28.4
62981;PMS5003;49075;53.988;27.678;2023-09-18T19:30:59;53;44;30.4
62981;PMS5003;49075;53.988;27.678;2023-09-18T19:35:45;51.8;43.2;29.6
62981;PMS5003;49075;53.988;27.678;2023-09-18T19:41:05;53;43.4;30.4
62981;PMS5003;49075;53.988;27.678;2023-09-18T19:45:51;50.5;42.3;29.5
62981;PMS5003;49075;53.988;27.678;2023-09-18T19:50:55;49.2;41.2;28.8
62981;PMS5003;49075;53.988;27.678;2023-09-18T19:55:44;49;40.8;29
62981;PMS5003;49075;53.988;27.678;2023-09-18T20:00:45;46.4;39.2;27.8
62981;PMS5003;49075;53.988;27.678;2023-09-18T20:06:01;50.2;41.8;29.4
62981;PMS5003;49075;53.988;27.678;2023-09-18T20:11:03;51.4;42.8;30
62981;PMS5003;49075;53.988;27.678;2023-09-18T20:16:03;52;43.6;30
62981;PMS5003;49075;53.988;27.678;2023-09-18T20:20:59;50.8;41.6;28.8
62981;PMS5003;49075;53.988;27.678;2023-09-18T20:25:57;50.8;41.8;29
62981;PMS5003;49075;53.988;27.678;2023-09-18T20:30:49;47;39.8;27.2
62981;PMS5003;49075;53.988;27.678;2023-09-18T20:35:58;52;42.6;29.4
62981;PMS5003;49075;53.988;27.678;2023-09-18T20:40:45;49.8;41.4;29.2
62981;PMS5003;49075;53.988;27.678;2023-09-18T20:46:09;49;41.5;29
62981;PMS5003;49075;53.988;27.678;2023-09-18T20:50:51;52.4;43.6;30.4
62981;PMS5003;49075;53.988;27.678;2023-09-18T20:55:45;46.8;39.6;27.4
62981;PMS5003;49075;53.988;27.678;2023-09-18T21:00:45;51.2;42.8;29.6
62981;PMS5003;49075;53.988;27.678;2023-09-18T21:05:48;47;39.8;27.4
62981;PMS5003;49075;53.988;27.678;2023-09-18T21:10:51;51.2;42;29.6
62981;PMS5003;49075;53.988;27.678;2023-09-18T21:15:59;48.2;40.4;28.6
62981;PMS5003;49075;53.988;27.678;2023-09-18T21:20:45;46.6;39;27.4
62981;PMS5003;49075;53.988;27.678;2023-09-18T21:25:47;47.4;40.2;28
62981;PMS5003;49075;53.988;27.678;2023-09-18T21:30:45;47.4;40.4;28.6
62981;PMS5003;49075;53.988;27.678;2023-09-18T21:35:51;41.2;35.8;24.8
62981;PMS5003;49075;53.988;27.678;2023-09-18T21:40:45;48.2;40.6;28.6
62981;PMS5003;49075;53.988;27.678;2023-09-18T21:45:51;45.8;38.6;27.6
62981;PMS5003;49075;53.988;27.678;2023-09-18T21:51:15;48.8;40.8;27.8
62981;PMS5003;49075;53.988;27.678;2023-09-18T21:55:45;47.6;40.2;28.2
62981;PMS5003;49075;53.988;27.678;2023-09-18T22:01:05;46.4;38.6;27.6
62981;PMS5003;49075;53.988;27.678;2023-09-18T22:05:45;49.4;41.6;29.8
62981;PMS5003;49075;53.988;27.678;2023-09-18T22:11:05;48;40.8;28.6
62981;PMS5003;49075;53.988;27.678;2023-09-18T22:15:57;51;42.4;29.6
62981;PMS5003;49075;53.988;27.678;2023-09-18T22:20:45;47.2;40.4;28.2
62981;PMS5003;49075;53.988;27.678;2023-09-18T22:26:09;44.4;38;26.8
62981;PMS5003;49075;53.988;27.678;2023-09-18T22:31:05;47;40.2;27.8
62981;PMS5003;49075;53.988;27.678;2023-09-18T22:35:45;46.8;39.6;27.8
62981;PMS5003;49075;53.988;27.678;2023-09-18T22:56:27;46;39.2;27.4
62981;PMS5003;49075;53.988;27.678;2023-09-18T23:00:59;44.8;38.4;27
62981;PMS5003;49075;53.988;27.678;2023-09-18T23:05:45;45;38.2;26.8
62981;PMS5003;49075;53.988;27.678;2023-09-18T23:10:57;50.2;41.8;29
62981;PMS5003;49075;53.988;27.678;2023-09-18T23:15:45;48;40.8;28.6
62981;PMS5003;49075;53.988;27.678;2023-09-18T23:20:45;46;38.2;27.4
62981;PMS5003;49075;53.988;27.678;2023-09-18T23:26:03;47.8;40;28
62981;PMS5003;49075;53.988;27.678;2023-09-18T23:31:15;48.4;40.8;28.8
62981;PMS5003;49075;53.988;27.678;2023-09-18T23:36:17;45;38.8;27.4
62981;PMS5003;49075;53.988;27.678;2023-09-18T23:41:19;45.4;38.8;27
62981;PMS5003;49075;53.988;27.678;2023-09-18T23:45:45;46.6;39.8;27.2
62981;PMS5003;49075;53.988;27.678;2023-09-18T23:51:31;43.8;37;26
62981;PMS5003;49075;53.988;27.678;2023-09-18T23:56:11;45.4;38.6;27
